createdAt,value
2024-01-05T00:01:32.980Z,37.34
2024-01-05T00:04:02.182Z,37.50
2024-01-05T00:06:31.022Z,37.48
2024-01-05T00:08:58.943Z,37.40
2024-01-05T00:11:26.491Z,37.42
2024-01-05T00:13:54.130Z,37.47
2024-01-05T00:16:22.719Z,37.49
2024-01-05T00:18:50.769Z,37.47
2024-01-05T00:21:25.480Z,37.24
2024-01-05T00:23:53.984Z,37.04
2024-01-05T00:26:21.504Z,37.11
2024-01-05T00:28:49.953Z,37.15
2024-01-05T00:31:18.151Z,37.09
2024-01-05T00:33:46.078Z,37.08
2024-01-05T00:36:13.739Z,37.03
2024-01-05T00:38:48.772Z,37.15
2024-01-05T00:41:16.813Z,37.01
2024-01-05T00:43:44.360Z,36.97
2024-01-05T00:46:11.931Z,36.89
2024-01-05T00:48:39.658Z,36.94
2024-01-05T00:51:07.480Z,36.95
2024-01-05T00:53:35.223Z,37.03
2024-01-05T00:56:02.879Z,36.99
2024-01-05T00:58:30.659Z,36.91
2024-01-05T01:00:58.277Z,36.81
2024-01-05T01:03:25.971Z,36.77
2024-01-05T01:05:53.663Z,36.84
2024-01-05T01:08:21.304Z,36.87
2024-01-05T01:10:48.852Z,37.00
2024-01-05T01:13:16.331Z,37.02
2024-01-05T01:15:43.863Z,37.16
2024-01-05T01:18:11.543Z,37.24
2024-01-05T01:20:40.022Z,37.23
2024-01-05T01:23:07.681Z,37.19
2024-01-05T01:25:35.281Z,37.10
2024-01-05T01:28:04.444Z,37.12
2024-01-05T01:30:32.070Z,37.15
2024-01-05T01:32:59.785Z,37.12
2024-01-05T01:35:27.460Z,37.05
2024-01-05T01:37:54.980Z,37.14
2024-01-05T01:40:22.640Z,37.05
2024-01-05T01:42:50.921Z,37.16
2024-01-05T01:45:19.352Z,37.12
2024-01-05T01:47:47.343Z,37.09
2024-01-05T01:50:15.141Z,37.22
2024-01-05T01:52:44.552Z,37.11
2024-01-05T01:55:12.201Z,37.10
2024-01-05T01:57:39.831Z,37.16
2024-01-05T02:00:08.475Z,37.25
2024-01-05T02:02:36.109Z,37.10
2024-01-05T02:05:04.050Z,37.08
2024-01-05T02:07:31.741Z,37.21
2024-01-05T02:09:59.248Z,37.10
2024-01-05T02:12:26.850Z,37.01
2024-01-05T02:14:54.445Z,36.89
2024-01-05T02:17:32.179Z,37.01
2024-01-05T02:20:00.389Z,36.90
2024-01-05T02:22:30.629Z,36.82
2024-01-05T02:24:58.935Z,36.87
2024-01-05T02:27:26.970Z,36.85
2024-01-05T02:29:54.571Z,37.04
2024-01-05T02:32:22.619Z,37.09
2024-01-05T02:34:50.314Z,37.05
2024-01-05T02:37:17.924Z,37.05
2024-01-05T02:39:45.891Z,37.16
2024-01-05T02:42:13.470Z,37.24
2024-01-05T02:44:41.111Z,37.41
2024-01-05T02:47:08.699Z,37.46
2024-01-05T02:49:36.572Z,37.37
2024-01-05T02:52:04.715Z,37.12
2024-01-05T02:54:32.596Z,36.97
2024-01-05T02:57:00.293Z,37.08
2024-01-05T02:59:27.952Z,37.20
2024-01-05T03:01:55.467Z,37.21
2024-01-05T03:04:23.060Z,37.21
2024-01-05T03:06:50.617Z,37.04
2024-01-05T03:09:18.337Z,36.87
2024-01-05T03:11:46.224Z,36.91
2024-01-05T03:14:15.053Z,37.09
2024-01-05T03:16:42.884Z,37.09
2024-01-05T03:19:10.722Z,37.01
2024-01-05T03:21:38.462Z,37.02
2024-01-05T03:24:06.853Z,37.05
2024-01-05T03:26:34.389Z,37.03
2024-01-05T03:29:02.469Z,37.17
2024-01-05T03:31:30.021Z,37.24
2024-01-05T03:33:58.005Z,37.34
2024-01-05T03:36:25.646Z,37.26
2024-01-05T03:38:53.413Z,37.32
2024-01-05T03:41:21.036Z,37.09
2024-01-05T03:43:48.538Z,36.99
2024-01-05T03:46:16.165Z,37.07
2024-01-05T03:48:43.759Z,37.04
2024-01-05T03:51:11.445Z,36.87
2024-01-05T03:53:39.052Z,36.85
2024-01-05T03:56:07.066Z,36.87
2024-01-05T03:58:34.979Z,36.76
2024-01-05T04:01:02.988Z,36.74
2024-01-05T04:03:31.004Z,36.80
2024-01-05T04:05:58.613Z,36.88
2024-01-05T04:08:26.256Z,36.92
2024-01-05T04:10:53.751Z,36.82
2024-01-05T04:15:20.696Z,40.89
2024-01-05T04:17:48.819Z,38.25
2024-01-05T04:20:16.445Z,37.89
2024-01-05T04:22:44.065Z,37.64
2024-01-05T04:25:11.567Z,37.54
2024-01-05T04:27:39.396Z,37.32
2024-01-05T04:30:07.879Z,37.18
2024-01-05T04:32:35.806Z,37.18
2024-01-05T04:35:04.723Z,37.18
2024-01-05T04:37:32.387Z,37.24
2024-01-05T04:39:59.945Z,37.30
2024-01-05T04:42:28.445Z,37.32
2024-01-05T04:44:56.222Z,37.19
2024-01-05T04:47:24.773Z,37.21
2024-01-05T04:49:52.365Z,37.28
2024-01-05T04:52:19.948Z,37.31
2024-01-05T04:54:47.461Z,37.36
2024-01-05T04:57:14.986Z,37.25
2024-01-05T04:59:42.890Z,37.32
2024-01-05T05:02:10.381Z,37.19
2024-01-05T05:04:37.894Z,37.21
2024-01-05T05:07:05.864Z,37.22
2024-01-05T05:09:33.528Z,37.34
2024-01-05T05:12:01.243Z,37.35
2024-01-05T05:14:28.857Z,37.24
2024-01-05T05:16:56.417Z,37.43
2024-01-05T05:19:24.083Z,37.37
2024-01-05T05:21:51.844Z,37.45
2024-01-05T05:24:19.432Z,37.65
2024-01-05T05:26:46.967Z,37.71
2024-01-05T05:29:15.036Z,37.79
2024-01-05T05:31:42.953Z,37.77
2024-01-05T05:34:10.848Z,37.84
2024-01-05T05:36:38.493Z,37.64
2024-01-05T05:39:06.649Z,37.58
2024-01-05T05:41:34.278Z,37.48
2024-01-05T05:44:01.776Z,37.57
2024-01-05T05:46:29.390Z,37.56
2024-01-05T05:48:57.135Z,37.71
2024-01-05T05:51:24.942Z,37.65
2024-01-05T05:53:52.638Z,37.68
2024-01-05T05:56:20.240Z,37.58
2024-01-05T05:58:47.662Z,37.74
2024-01-05T06:01:15.625Z,37.72
2024-01-05T06:03:43.511Z,37.80
2024-01-05T06:06:20.212Z,37.72
2024-01-05T06:08:47.976Z,37.60
2024-01-05T06:11:17.388Z,38.08
2024-01-05T06:13:47.911Z,38.31
2024-01-05T06:16:15.582Z,38.27
2024-01-05T06:18:43.694Z,38.19
2024-01-05T06:21:11.742Z,37.83
2024-01-05T06:23:39.298Z,37.68
2024-01-05T06:26:06.892Z,37.78
2024-01-05T06:28:34.599Z,38.23
2024-01-05T06:31:02.163Z,38.75
2024-01-05T06:33:29.922Z,39.04
2024-01-05T06:35:57.640Z,39.22
2024-01-05T06:38:25.086Z,39.38
2024-01-05T06:40:52.601Z,39.53
2024-01-05T06:43:20.260Z,39.79
2024-01-05T06:45:47.822Z,39.81
2024-01-05T06:48:15.497Z,39.83
2024-01-05T06:50:43.332Z,39.82
2024-01-05T06:53:11.012Z,39.64
2024-01-05T06:55:38.573Z,39.68
2024-01-05T06:58:06.954Z,39.78
2024-01-05T07:00:34.397Z,39.69
2024-01-05T07:03:01.975Z,39.74
2024-01-05T07:05:29.547Z,39.74
2024-01-05T07:07:57.108Z,39.82
2024-01-05T07:10:24.958Z,39.80
2024-01-05T07:12:53.481Z,39.84
2024-01-05T07:15:21.122Z,39.74
2024-01-05T07:17:49.244Z,39.54
2024-01-05T07:20:17.140Z,39.47
2024-01-05T07:22:44.801Z,39.49
2024-01-05T07:25:12.303Z,39.63
2024-01-05T07:27:39.957Z,39.72
2024-01-05T07:30:08.366Z,39.64
2024-01-05T07:32:36.009Z,39.42
2024-01-05T07:35:05.432Z,39.55
2024-01-05T07:37:32.878Z,39.64
2024-01-05T07:40:00.390Z,39.56
2024-01-05T07:42:29.251Z,39.63
2024-01-05T07:44:59.416Z,39.63
2024-01-05T07:47:27.396Z,39.47
2024-01-05T07:49:54.935Z,39.24
2024-01-05T07:52:22.491Z,39.14
2024-01-05T07:54:49.966Z,39.17
2024-01-05T07:57:17.560Z,39.03
2024-01-05T07:59:45.169Z,38.98
2024-01-05T08:02:12.758Z,38.98
2024-01-05T08:04:40.913Z,38.76
2024-01-05T08:07:08.493Z,38.47
2024-01-05T08:09:36.190Z,38.36
2024-01-05T08:12:04.253Z,38.10
2024-01-05T08:14:31.859Z,38.16
2024-01-05T08:16:59.683Z,38.02
2024-01-05T08:19:27.449Z,38.03
2024-01-05T08:21:55.090Z,38.27
2024-01-05T08:24:23.284Z,38.09
2024-01-05T08:26:50.832Z,38.06
2024-01-05T08:29:18.655Z,38.15
2024-01-05T08:31:46.453Z,38.49
2024-01-05T08:34:14.584Z,38.63
2024-01-05T08:36:42.439Z,38.68
2024-01-05T08:39:10.548Z,38.66
2024-01-05T08:41:38.190Z,38.70
2024-01-05T08:44:05.986Z,38.65
2024-01-05T08:46:33.818Z,38.49
2024-01-05T08:49:01.426Z,38.44
2024-01-05T08:51:29.792Z,38.32
2024-01-05T08:53:59.622Z,38.39
2024-01-05T08:56:27.288Z,38.43
2024-01-05T08:58:56.550Z,38.44
2024-01-05T09:01:24.272Z,38.46
2024-01-05T09:03:52.057Z,38.42
2024-01-05T09:06:19.829Z,38.39
2024-01-05T09:08:47.346Z,38.52
2024-01-05T09:11:15.576Z,38.29
2024-01-05T09:13:43.387Z,38.31
2024-01-05T09:16:10.900Z,38.27
2024-01-05T09:18:39.542Z,37.94
2024-01-05T09:21:08.817Z,37.60
2024-01-05T09:23:36.411Z,37.54
2024-01-05T09:26:04.231Z,37.39
2024-01-05T09:28:31.765Z,37.28
2024-01-05T09:30:59.345Z,36.94
2024-01-05T09:33:27.055Z,36.72
2024-01-05T09:35:54.756Z,36.70
2024-01-05T09:38:22.433Z,36.27
2024-01-05T09:40:54.183Z,36.25
2024-01-05T09:43:23.165Z,36.21
2024-01-05T09:45:51.424Z,36.20
2024-01-05T09:48:27.722Z,36.32
2024-01-05T09:50:58.360Z,36.37
2024-01-05T09:53:26.100Z,36.50
2024-01-05T09:55:53.580Z,36.58
2024-01-05T09:58:21.132Z,36.46
2024-01-05T10:00:50.736Z,36.68
2024-01-05T10:03:23.242Z,36.41
2024-01-05T10:05:52.184Z,36.26
2024-01-05T10:08:20.295Z,36.41
2024-01-05T10:10:49.848Z,36.37
2024-01-05T10:13:17.548Z,36.26
2024-01-05T10:16:06.363Z,36.43
2024-01-05T10:18:35.639Z,35.89
2024-01-05T10:21:10.493Z,35.59
2024-01-05T10:23:44.628Z,35.62
2024-01-05T10:26:20.107Z,35.45
2024-01-05T10:28:50.112Z,35.46
2024-01-05T10:31:20.648Z,35.46
2024-01-05T10:33:56.418Z,35.52
2024-01-05T10:36:24.901Z,35.81
2024-01-05T10:38:52.708Z,35.75
2024-01-05T10:41:22.493Z,35.69
2024-01-05T10:43:50.426Z,35.74
2024-01-05T10:46:21.962Z,35.71
2024-01-05T10:48:49.827Z,35.82
2024-01-05T10:51:20.326Z,35.91
2024-01-05T10:53:48.621Z,35.84
2024-01-05T10:56:17.022Z,35.96
2024-01-05T10:58:44.593Z,35.92
2024-01-05T11:01:12.308Z,36.08
2024-01-05T11:03:41.874Z,36.18
2024-01-05T11:06:12.676Z,36.25
2024-01-05T11:08:48.647Z,36.25
2024-01-05T11:11:19.279Z,36.25
2024-01-05T11:13:57.749Z,36.31
2024-01-05T11:16:53.828Z,36.26
2024-01-05T11:19:27.630Z,36.44
2024-01-05T11:22:00.518Z,36.44
2024-01-05T11:24:28.099Z,36.54
2024-01-05T11:26:55.955Z,36.61
2024-01-05T11:29:45.740Z,36.72
2024-01-05T11:32:34.461Z,36.78
2024-01-05T11:35:03.224Z,36.84
2024-01-05T11:37:32.159Z,37.16
2024-01-05T11:40:01.718Z,37.45
2024-01-05T11:42:30.593Z,37.66
2024-01-05T11:44:59.836Z,37.57
2024-01-05T11:47:47.085Z,37.68
2024-01-05T11:50:24.773Z,37.60
2024-01-05T11:53:15.363Z,37.79
2024-01-05T11:56:04.557Z,37.93
2024-01-05T11:58:33.406Z,38.08
2024-01-05T12:01:01.423Z,38.04
2024-01-05T12:03:29.543Z,38.24
2024-01-05T12:06:01.596Z,38.40
2024-01-05T12:08:29.520Z,38.34
2024-01-05T12:10:58.093Z,37.97
2024-01-05T12:13:28.126Z,37.76
2024-01-05T12:16:01.359Z,37.70
2024-01-05T12:18:37.955Z,37.72
2024-01-05T12:21:08.197Z,37.81
2024-01-05T12:23:36.712Z,37.85
2024-01-05T12:26:08.545Z,38.08
2024-01-05T12:28:38.865Z,38.33
2024-01-05T12:31:07.410Z,38.30
2024-01-05T12:33:38.943Z,38.22
2024-01-05T12:36:16.282Z,38.08
2024-01-05T12:38:44.306Z,37.71
2024-01-05T12:41:17.412Z,37.65
2024-01-05T12:43:49.556Z,37.74
2024-01-05T12:46:17.999Z,37.77
2024-01-05T12:48:45.795Z,37.75
2024-01-05T12:51:21.098Z,37.96
2024-01-05T12:54:04.884Z,37.70
2024-01-05T12:56:32.867Z,38.08
2024-01-05T12:59:00.540Z,38.26
2024-01-05T13:01:28.515Z,38.17
2024-01-05T13:03:57.515Z,37.97
2024-01-05T13:06:28.192Z,37.24
2024-01-05T13:08:57.074Z,36.85
2024-01-05T13:11:24.881Z,36.91
2024-01-05T13:13:53.115Z,36.78
2024-01-05T13:16:20.776Z,36.45
2024-01-05T13:18:48.563Z,36.22
2024-01-05T13:21:16.475Z,36.18
2024-01-05T13:23:45.430Z,35.65
2024-01-05T13:26:13.304Z,35.61
2024-01-05T13:28:42.179Z,35.30
2024-01-05T13:31:10.689Z,34.78
2024-01-05T13:33:38.602Z,34.39
2024-01-05T13:36:07.226Z,34.36
2024-01-05T13:38:34.878Z,34.28
2024-01-05T13:41:02.537Z,34.14
2024-01-05T13:43:30.019Z,34.23
2024-01-05T13:45:57.637Z,34.32
2024-01-05T13:48:25.427Z,34.32
2024-01-05T13:50:53.689Z,34.21
2024-01-05T13:53:21.444Z,33.95
2024-01-05T13:55:49.243Z,34.04
2024-01-05T13:58:17.122Z,33.89
2024-01-05T14:00:46.173Z,34.12
2024-01-05T14:03:14.354Z,34.15
2024-01-05T14:05:42.083Z,33.94
2024-01-05T14:08:09.666Z,33.99
2024-01-05T14:10:37.277Z,34.07
2024-01-05T14:13:04.779Z,34.03
2024-01-05T14:15:32.333Z,34.11
2024-01-05T14:18:00.046Z,33.93
2024-01-05T14:20:27.984Z,33.70
2024-01-05T14:22:55.644Z,33.79
2024-01-05T14:25:23.237Z,33.66
2024-01-05T14:27:50.756Z,33.40
2024-01-05T14:30:18.405Z,33.33
2024-01-05T14:32:46.184Z,33.44
2024-01-05T14:35:14.066Z,33.55
2024-01-05T14:37:41.540Z,33.62
2024-01-05T14:40:12.471Z,33.75
2024-01-05T14:42:40.185Z,33.91
2024-01-05T14:45:08.308Z,33.73
2024-01-05T14:47:35.997Z,32.86
2024-01-05T14:50:04.756Z,32.92
2024-01-05T14:52:32.341Z,32.97
2024-01-05T14:55:02.212Z,33.03
2024-01-05T14:57:29.987Z,32.53
2024-01-05T14:59:57.643Z,31.95
2024-01-05T15:02:26.016Z,31.61
2024-01-05T15:04:54.396Z,31.28
2024-01-05T15:07:22.383Z,31.40
2024-01-05T15:09:50.382Z,31.47
2024-01-05T15:12:18.188Z,30.71
2024-01-05T15:14:45.768Z,30.78
2024-01-05T15:17:13.272Z,30.54
2024-01-05T15:19:41.710Z,30.53
2024-01-05T15:22:09.673Z,30.81
2024-01-05T15:24:41.617Z,30.47
2024-01-05T15:27:09.238Z,30.41
2024-01-05T15:29:40.437Z,30.46
2024-01-05T15:32:08.147Z,30.16
2024-01-05T15:34:35.894Z,29.89
2024-01-05T15:37:03.843Z,30.17
2024-01-05T15:39:32.460Z,30.37
2024-01-05T15:42:00.180Z,30.44
2024-01-05T15:44:27.750Z,30.69
2024-01-05T15:46:56.000Z,30.67
2024-01-05T15:49:25.863Z,30.65
2024-01-05T15:51:53.635Z,30.55
2024-01-05T15:54:21.284Z,30.62
2024-01-05T15:56:48.824Z,30.79
2024-01-05T15:59:16.388Z,31.02
2024-01-05T16:01:48.600Z,31.20
2024-01-05T16:04:16.365Z,31.00
2024-01-05T16:06:44.211Z,30.73
2024-01-05T16:09:11.872Z,30.80
2024-01-05T16:11:40.726Z,30.67
2024-01-05T16:14:08.450Z,30.61
2024-01-05T16:16:36.872Z,30.60
2024-01-05T16:19:04.482Z,30.61
2024-01-05T16:21:34.401Z,30.41
2024-01-05T16:24:04.564Z,30.26
2024-01-05T16:26:32.246Z,30.38
2024-01-05T16:28:59.822Z,30.38
2024-01-05T16:33:39.354Z,33.04
2024-01-05T16:36:07.932Z,31.18
2024-01-05T16:38:36.004Z,31.15
2024-01-05T16:41:07.978Z,30.91
2024-01-05T16:43:36.280Z,30.94
2024-01-05T16:46:04.765Z,31.04
2024-01-05T16:48:32.552Z,30.95
2024-01-05T16:51:00.242Z,31.08
2024-01-05T16:53:29.098Z,31.10
2024-01-05T16:55:59.768Z,31.07
2024-01-05T16:58:27.272Z,31.16
2024-01-05T17:00:54.825Z,31.16
2024-01-05T17:03:22.808Z,31.14
2024-01-05T17:05:50.482Z,31.21
2024-01-05T17:08:18.190Z,31.04
2024-01-05T17:10:46.983Z,31.02
2024-01-05T17:13:14.951Z,31.08
2024-01-05T17:15:42.673Z,31.02
2024-01-05T17:18:10.718Z,31.09
2024-01-05T17:20:38.967Z,31.12
2024-01-05T17:23:06.623Z,31.07
2024-01-05T17:25:34.498Z,31.06
2024-01-05T17:28:02.054Z,31.12
2024-01-05T17:30:29.655Z,31.28
2024-01-05T17:32:57.943Z,31.37
2024-01-05T17:35:26.004Z,31.73
2024-01-05T17:37:53.562Z,31.95
2024-01-05T17:40:21.182Z,32.01
2024-01-05T17:42:48.796Z,31.95
2024-01-05T17:45:16.552Z,31.94
2024-01-05T17:47:45.413Z,32.00
2024-01-05T17:50:15.218Z,32.09
2024-01-05T17:52:42.889Z,32.16
2024-01-05T17:55:11.161Z,32.17
2024-01-05T17:57:40.616Z,32.18
2024-01-05T18:00:09.386Z,32.09
2024-01-05T18:02:39.047Z,32.30
2024-01-05T18:05:08.468Z,32.47
2024-01-05T18:07:36.064Z,32.55
2024-01-05T18:10:04.183Z,32.72
2024-01-05T18:12:31.787Z,32.79
2024-01-05T18:14:59.258Z,32.90
2024-01-05T18:17:28.333Z,32.85
2024-01-05T18:19:56.797Z,32.86
2024-01-05T18:22:24.449Z,32.87
2024-01-05T18:24:52.226Z,32.69
2024-01-05T18:27:19.954Z,32.50
2024-01-05T18:29:47.641Z,32.36
2024-01-05T18:32:15.196Z,32.32
2024-01-05T18:34:46.784Z,32.28
2024-01-05T18:37:15.333Z,32.25
2024-01-05T18:39:44.383Z,32.11
2024-01-05T18:42:12.209Z,31.95
2024-01-05T18:44:41.806Z,32.03
2024-01-05T18:47:09.369Z,31.97
2024-01-05T18:49:37.221Z,31.84
2024-01-05T18:52:05.506Z,31.75
2024-01-05T18:54:34.151Z,31.85
2024-01-05T18:57:01.749Z,31.87
2024-01-05T18:59:29.360Z,31.89
2024-01-05T19:01:57.177Z,32.02
2024-01-05T19:04:24.895Z,32.00
2024-01-05T19:06:52.799Z,31.90
2024-01-05T19:09:21.130Z,31.89
2024-01-05T19:11:48.878Z,31.95
2024-01-05T19:14:16.554Z,32.00
2024-01-05T19:16:44.428Z,32.00
2024-01-05T19:19:15.925Z,32.08
2024-01-05T19:21:53.484Z,32.24
2024-01-05T19:24:25.475Z,32.41
2024-01-05T19:26:53.398Z,32.43
2024-01-05T19:29:21.282Z,32.44
2024-01-05T19:31:49.217Z,32.55
2024-01-05T19:34:18.110Z,32.53
2024-01-05T19:36:46.204Z,32.53
2024-01-05T19:39:15.233Z,32.57
2024-01-05T19:41:44.504Z,32.50
2024-01-05T19:44:12.215Z,32.47
2024-01-05T19:46:39.882Z,32.56
2024-01-05T19:49:07.900Z,32.55
2024-01-05T19:51:35.639Z,32.55
2024-01-05T19:54:04.550Z,32.53
2024-01-05T19:56:32.218Z,32.66
2024-01-05T19:58:59.826Z,32.70
2024-01-05T20:01:32.587Z,32.62
2024-01-05T20:04:00.396Z,32.74
2024-01-05T20:06:28.201Z,32.68
2024-01-05T20:08:56.009Z,32.69
2024-01-05T20:11:23.705Z,32.67
2024-01-05T20:13:51.229Z,32.69
2024-01-05T20:16:18.845Z,32.67
2024-01-05T20:18:47.758Z,32.66
2024-01-05T20:21:16.142Z,32.69
2024-01-05T20:23:43.929Z,32.69
2024-01-05T20:26:18.152Z,32.78
2024-01-05T20:28:46.118Z,32.79
2024-01-05T20:31:14.198Z,32.78
2024-01-05T20:33:42.059Z,32.66
2024-01-05T20:36:09.911Z,32.69
2024-01-05T20:38:37.534Z,32.74
2024-01-05T20:41:06.197Z,32.74
2024-01-05T20:43:33.833Z,32.54
2024-01-05T20:46:01.287Z,32.45
2024-01-05T20:48:29.080Z,32.38
2024-01-05T20:50:56.819Z,32.31
2024-01-05T20:53:24.382Z,32.32
2024-01-05T20:55:52.135Z,32.27
2024-01-05T20:58:19.800Z,32.37
2024-01-05T21:00:49.460Z,32.33
2024-01-05T21:03:17.321Z,32.48
2024-01-05T21:05:45.345Z,32.51
2024-01-05T21:08:14.285Z,32.59
2024-01-05T21:10:42.013Z,32.65
2024-01-05T21:13:09.583Z,32.82
2024-01-05T21:15:38.099Z,32.97
2024-01-05T21:18:06.266Z,33.02
2024-01-05T21:20:34.245Z,33.02
2024-01-05T21:23:02.067Z,33.14
2024-01-05T21:25:31.822Z,33.09
2024-01-05T21:27:59.741Z,33.01
2024-01-05T21:30:27.992Z,32.91
2024-01-05T21:32:56.078Z,32.95
2024-01-05T21:35:23.641Z,32.91
2024-01-05T21:37:52.126Z,32.84
2024-01-05T21:40:19.792Z,32.79
2024-01-05T21:42:48.543Z,32.82
2024-01-05T21:45:17.916Z,32.94
2024-01-05T21:47:45.832Z,32.98
2024-01-05T21:50:13.509Z,33.03
2024-01-05T21:52:41.693Z,33.03
2024-01-05T21:55:09.458Z,32.97
2024-01-05T21:57:37.280Z,32.91
2024-01-05T22:00:06.152Z,32.90
2024-01-05T22:02:35.510Z,32.77
2024-01-05T22:05:05.642Z,32.72
2024-01-05T22:07:33.351Z,32.59
2024-01-05T22:10:00.953Z,32.49
2024-01-05T22:12:28.581Z,32.46
2024-01-05T22:14:56.181Z,32.38
2024-01-05T22:17:23.796Z,32.19
2024-01-05T22:19:51.388Z,32.19
2024-01-05T22:22:20.397Z,32.18
2024-01-05T22:24:48.369Z,32.27
2024-01-05T22:27:16.038Z,32.29
2024-01-05T22:29:44.830Z,32.10
2024-01-05T22:32:12.368Z,31.95
2024-01-05T22:34:42.284Z,31.76
2024-01-05T22:37:10.156Z,31.72
2024-01-05T22:39:39.352Z,31.68
2024-01-05T22:42:07.130Z,31.60
2024-01-05T22:44:35.174Z,31.53
2024-01-05T22:47:06.158Z,31.53
2024-01-05T22:49:33.816Z,31.63
2024-01-05T22:52:01.547Z,31.67
2024-01-05T22:54:29.169Z,31.77
2024-01-05T22:56:56.778Z,31.82
2024-01-05T22:59:25.608Z,31.70
2024-01-05T23:01:56.293Z,31.71
2024-01-05T23:04:24.255Z,31.93
2024-01-05T23:06:52.761Z,32.02
2024-01-05T23:09:20.544Z,32.25
2024-01-05T23:11:49.296Z,32.26
2024-01-05T23:14:17.325Z,32.38
2024-01-05T23:16:48.174Z,32.40
2024-01-05T23:19:15.947Z,32.44
2024-01-05T23:21:43.482Z,32.60
2024-01-05T23:24:11.140Z,32.69
2024-01-05T23:26:38.754Z,32.63
2024-01-05T23:29:06.419Z,32.60
2024-01-05T23:31:39.155Z,32.62
2024-01-05T23:34:15.101Z,32.60
2024-01-05T23:36:44.801Z,32.68
2024-01-05T23:39:12.563Z,32.85
2024-01-05T23:41:40.308Z,32.92
2024-01-05T23:44:08.577Z,32.85
2024-01-05T23:46:36.172Z,32.80
2024-01-05T23:49:03.883Z,32.86
2024-01-05T23:51:31.783Z,32.89
2024-01-05T23:53:59.327Z,32.84
2024-01-05T23:56:27.087Z,32.76
2024-01-05T23:58:55.117Z,32.79
